KHTS/HTS METAR and TAF weather

Enter ICAO airport designator
Station Type Date Time Source
KHTS METAR 2019/02/16 06:51 UTC NOAA

KHTS 160651Z 05008KT 10SM OVC055 02/M08 A2990 RMK AO2 SLP127 T00221078


Station Type Date Time Source
KHTS Decoded METAR 2019/02/16 06:51 UTC NOAA

TRI-STATE AIRPORT, WV, United States (KHTS) 38-22N 082-33W 254M
Feb 16, 2019 - 01:51 AM EST / 2019.02.16 0651 UTC
Wind: from the NE (050 degrees) at 9 MPH (8 KT):0
Visibility: 10 mile(s):0
Sky conditions: overcast
Temperature: 36.0 F (2.2 C)
Dew Point: 18.0 F (-7.8 C)
Relative Humidity: 47%
Pressure (altimeter): 29.9 in. Hg (1012 hPa)
ob: KHTS 160651Z 05008KT 10SM OVC055 02/M08 A2990 RMK AO2 SLP127 T00221078
cycle: 7

Station Type Date Time Source
KHTS TAF 2019/02/16 06:30 UTC NOAA

TAF KHTS 160527Z 1606/1706 32003KT P6SM OVC050
FM160800 03005KT P6SM VCSH OVC070
FM161500 03008KT P6SM SCT190


Example: see airport list